Time;durP1;ratioP1;P1;durP2;ratioP2;P2;SDS_P1;SDS_P2;PMS_P1;PMS_P2;Temp;Humidity;BMP_temperature;BMP_pressure;BME280_temperature;BME280_humidity;BME280_pressure;Samples;Min_cycle;Max_cycle;Signal;HPM_P1;HPM_P2
2021/03/02 00:01:47;;;;;;;20.13;17.20;;;6.60;98.60;;;;;;5092655;28;20173;-74
2021/03/02 00:04:13;;;;;;;20.10;16.23;;;6.50;98.50;;;;;;5075656;28;20191;-74
2021/03/02 00:06:40;;;;;;;17.97;16.07;;;6.50;98.20;;;;;;5075147;28;20413;-74
2021/03/02 00:09:06;;;;;;;20.30;16.85;;;6.50;97.90;;;;;;5092831;28;20504;-74
2021/03/02 00:11:32;;;;;;;18.75;15.85;;;6.50;97.60;;;;;;5093432;28;20239;-73
2021/03/02 00:13:58;;;;;;;21.40;16.00;;;6.50;97.60;;;;;;5092527;28;20192;-74
2021/03/02 00:16:27;;;;;;;20.30;16.37;;;6.40;97.50;;;;;;5093357;28;20395;-73
2021/03/02 00:18:56;;;;;;;22.77;16.60;;;6.40;97.30;;;;;;5092567;28;20272;-74
2021/03/02 00:21:29;;;;;;;29.05;17.33;;;6.30;97.00;;;;;;5093446;28;20231;-74
2021/03/02 00:24:00;;;;;;;22.10;17.67;;;6.30;97.00;;;;;;5089114;28;20230;-74
2021/03/02 00:26:29;;;;;;;26.70;18.02;;;6.30;97.00;;;;;;5091987;28;20180;-74
2021/03/02 00:28:57;;;;;;;24.65;17.80;;;6.30;97.20;;;;;;5092270;28;20168;-74
2021/03/02 00:31:24;;;;;;;27.05;18.35;;;6.20;97.20;;;;;;5092983;28;20200;-74
2021/03/02 00:33:50;;;;;;;20.45;18.25;;;6.20;97.30;;;;;;5084423;28;20530;-73
2021/03/02 00:36:16;;;;;;;23.00;18.13;;;6.20;97.30;;;;;;5074095;28;20185;-73
2021/03/02 00:38:42;;;;;;;21.97;17.00;;;6.10;97.20;;;;;;5092715;28;20172;-74
2021/03/02 00:41:07;;;;;;;22.00;16.83;;;6.10;97.20;;;;;;5092040;28;20229;-73
2021/03/02 00:43:33;;;;;;;20.20;16.73;;;6.10;97.30;;;;;;5093013;28;20165;-74
2021/03/02 00:45:59;;;;;;;22.20;16.70;;;6.10;97.10;;;;;;5092340;28;20168;-74
2021/03/02 00:48:24;;;;;;;22.30;16.10;;;6.00;97.20;;;;;;5092847;28;20449;-73
2021/03/02 00:50:50;;;;;;;22.53;17.00;;;6.00;97.50;;;;;;5075077;28;20204;-74
2021/03/02 00:53:16;;;;;;;22.97;17.60;;;6.00;97.40;;;;;;5092206;28;20193;-73
2021/03/02 00:55:42;;;;;;;22.97;17.07;;;6.00;97.50;;;;;;5092154;28;20184;-73
2021/03/02 00:58:07;;;;;;;22.43;17.70;;;6.00;97.70;;;;;;5091695;28;20176;-73
2021/03/02 01:00:33;;;;;;;20.40;16.70;;;6.00;97.70;;;;;;5092833;28;20678;-73
2021/03/02 01:02:59;;;;;;;20.93;16.43;;;6.00;97.40;;;;;;5092055;28;20247;-73
2021/03/02 01:05:24;;;;;;;21.47;16.77;;;6.00;97.30;;;;;;5092747;28;20410;-73
2021/03/02 01:07:50;;;;;;;23.80;17.10;;;5.90;97.30;;;;;;5092269;28;20262;-73
2021/03/02 01:10:16;;;;;;;23.60;17.43;;;5.90;97.20;;;;;;5091954;28;20312;-74
2021/03/02 01:12:42;;;;;;;17.50;15.63;;;5.80;97.20;;;;;;5092599;28;20208;-73
2021/03/02 01:15:09;;;;;;;24.07;17.67;;;5.80;97.40;;;;;;5091520;28;20845;-73
2021/03/02 01:17:35;;;;;;;25.08;16.92;;;5.80;97.50;;;;;;5092634;28;20183;-73
2021/03/02 01:20:01;;;;;;;19.52;16.13;;;5.80;97.60;;;;;;5091826;28;20255;-73
2021/03/02 01:22:27;;;;;;;18.85;16.45;;;5.80;97.70;;;;;;5092173;28;20201;-73
2021/03/02 01:24:53;;;;;;;18.73;15.70;;;5.80;97.60;;;;;;5092563;28;20208;-73
2021/03/02 01:27:18;;;;;;;19.10;14.30;;;5.80;97.40;;;;;;5091618;28;20187;-73
2021/03/02 01:29:44;;;;;;;18.73;15.20;;;5.70;97.50;;;;;;5092483;28;20240;-73
2021/03/02 01:32:10;;;;;;;19.57;15.60;;;5.80;97.20;;;;;;5091321;28;20227;-73
2021/03/02 01:34:36;;;;;;;19.53;15.97;;;5.70;97.20;;;;;;5092448;28;20662;-73
2021/03/02 01:37:02;;;;;;;19.30;14.70;;;5.70;97.40;;;;;;5091844;28;20425;-73
2021/03/02 01:39:28;;;;;;;20.80;15.37;;;5.70;97.80;;;;;;5091764;28;20799;-73
2021/03/02 01:41:56;;;;;;;20.33;15.90;;;5.70;97.30;;;;;;5083425;28;20419;-73
2021/03/02 01:44:23;;;;;;;18.30;15.20;;;5.70;97.40;;;;;;5071547;28;20192;-73
2021/03/02 01:46:50;;;;;;;18.02;15.18;;;5.60;97.40;;;;;;5072038;28;20218;-73
2021/03/02 01:49:17;;;;;;;18.55;15.80;;;5.70;97.40;;;;;;5081671;28;20175;-73
2021/03/02 01:51:44;;;;;;;19.98;16.00;;;5.70;97.10;;;;;;5091819;28;20242;-73
2021/03/02 01:54:11;;;;;;;18.13;16.10;;;5.60;97.20;;;;;;5091223;28;20168;-73
2021/03/02 01:56:38;;;;;;;17.98;15.00;;;5.60;97.10;;;;;;5072026;28;20165;-73
2021/03/02 01:59:04;;;;;;;17.75;14.15;;;5.60;96.90;;;;;;5065910;28;20202;-74
2021/03/02 02:01:30;;;;;;;17.58;15.25;;;5.60;97.00;;;;;;5091823;28;20593;-73
2021/03/02 02:04:04;;;;;;;18.52;14.68;;;5.50;97.00;;;;;;5084898;28;20224;-73
2021/03/02 02:06:44;;;;;;;20.20;14.77;;;5.60;97.00;;;;;;5071985;28;20540;-73
2021/03/02 02:09:26;;;;;;;17.38;14.25;;;5.60;97.00;;;;;;5076164;28;20202;-73
2021/03/02 02:12:09;;;;;;;17.15;14.50;;;5.50;96.80;;;;;;5095919;28;20253;-73
2021/03/02 02:14:59;;;;;;;15.88;13.88;;;5.50;96.80;;;;;;5096082;28;20500;-73
2021/03/02 02:17:54;;;;;;;16.85;15.05;;;5.50;96.80;;;;;;5095551;28;20250;-73
2021/03/02 02:20:36;;;;;;;19.83;14.93;;;5.40;96.90;;;;;;5095210;28;20168;-73
2021/03/02 02:23:13;;;;;;;18.05;14.70;;;5.50;97.10;;;;;;5074943;28;20176;-74
2021/03/02 02:25:42;;;;;;;18.65;14.63;;;5.40;97.10;;;;;;5088486;28;20547;-73
2021/03/02 02:28:10;;;;;;;21.30;15.75;;;5.40;97.00;;;;;;5094719;28;20187;-73
2021/03/02 02:30:39;;;;;;;17.00;14.95;;;5.40;97.00;;;;;;5095701;28;20169;-73
2021/03/02 02:33:07;;;;;;;15.63;13.90;;;5.40;97.00;;;;;;5094922;28;20168;-74
2021/03/02 02:35:33;;;;;;;18.20;14.50;;;5.30;97.00;;;;;;5094983;28;20530;-73
2021/03/02 02:38:01;;;;;;;18.23;15.13;;;5.30;96.90;;;;;;5095121;28;20521;-73
2021/03/02 02:40:28;;;;;;;19.20;14.90;;;5.30;96.80;;;;;;5095046;28;20172;-73
2021/03/02 02:42:57;;;;;;;16.08;14.38;;;5.30;97.00;;;;;;5095269;28;20209;-73
2021/03/02 02:45:23;;;;;;;17.00;15.18;;;5.30;97.10;;;;;;5094880;28;20168;-73
2021/03/02 02:47:50;;;;;;;17.27;13.88;;;5.30;96.90;;;;;;5094848;28;20613;-73
2021/03/02 02:50:18;;;;;;;17.83;14.35;;;5.30;97.00;;;;;;5094625;28;20659;-73
2021/03/02 02:52:45;;;;;;;15.68;13.43;;;5.30;96.90;;;;;;5095084;28;20287;-73
2021/03/02 02:55:16;;;;;;;17.25;14.40;;;5.30;97.10;;;;;;5076345;28;20179;-74
2021/03/02 02:57:46;;;;;;;16.98;14.32;;;5.30;97.60;;;;;;5095338;28;20161;-73
2021/03/02 03:00:13;;;;;;;17.73;14.38;;;5.20;96.90;;;;;;5075794;28;20608;-73
2021/03/02 03:02:43;;;;;;;19.30;14.05;;;5.20;96.80;;;;;;5088281;28;20207;-73
2021/03/02 03:05:15;;;;;;;15.40;13.70;;;5.20;96.70;;;;;;5093488;28;20197;-73
2021/03/02 03:07:55;;;;;;;16.85;13.23;;;5.20;96.60;;;;;;5095582;28;20609;-73
2021/03/02 03:10:27;;;;;;;17.65;14.10;;;5.20;96.60;;;;;;5094320;28;20344;-73
2021/03/02 03:12:55;;;;;;;15.90;13.25;;;5.20;96.80;;;;;;5094761;28;20222;-73
2021/03/02 03:15:23;;;;;;;18.23;13.98;;;5.20;97.10;;;;;;5093844;28;20498;-73
2021/03/02 03:17:54;;;;;;;16.13;13.60;;;5.20;96.70;;;;;;5076938;28;20211;-73
2021/03/02 03:20:22;;;;;;;17.08;14.27;;;5.20;96.80;;;;;;5076290;28;20282;-73
2021/03/02 03:22:48;;;;;;;15.93;14.05;;;5.20;96.80;;;;;;5093540;28;20176;-73
2021/03/02 03:25:16;;;;;;;16.20;14.45;;;5.20;97.00;;;;;;5093393;28;20568;-73
2021/03/02 03:27:53;;;;;;;16.55;13.80;;;5.20;97.30;;;;;;5094740;28;20184;-73
2021/03/02 03:30:21;;;;;;;15.70;13.98;;;5.30;97.60;;;;;;5086171;28;20562;-73
2021/03/02 03:32:55;;;;;;;16.50;14.55;;;5.30;97.90;;;;;;5074305;28;20249;-73
2021/03/02 03:35:23;;;;;;;22.38;15.52;;;5.30;98.00;;;;;;5073731;28;20213;-73
2021/03/02 03:37:49;;;;;;;36.20;15.68;;;5.30;98.20;;;;;;5074453;28;20510;-73
2021/03/02 03:40:15;;;;;;;22.17;16.27;;;5.40;98.50;;;;;;5073171;28;20169;-73
2021/03/02 03:42:41;;;;;;;33.90;17.35;;;5.40;99.00;;;;;;5087681;28;20172;-73
2021/03/02 03:45:07;;;;;;;29.60;17.37;;;5.40;99.30;;;;;;5093816;28;20173;-73
2021/03/02 03:47:34;;;;;;;23.27;17.65;;;5.40;99.40;;;;;;5093301;28;20177;-73
2021/03/02 03:50:00;;;;;;;19.20;16.30;;;5.30;99.40;;;;;;5094015;28;20179;-73
2021/03/02 03:52:26;;;;;;;20.53;17.07;;;5.30;99.60;;;;;;5075349;28;20801;-73
2021/03/02 03:54:54;;;;;;;23.60;16.90;;;5.40;99.50;;;;;;5094180;28;20415;-73
2021/03/02 03:57:20;;;;;;;21.13;17.70;;;5.40;99.40;;;;;;5093269;28;20415;-73
2021/03/02 03:59:47;;;;;;;18.95;15.90;;;5.40;99.20;;;;;;5093737;28;20169;-73
2021/03/02 04:02:14;;;;;;;23.33;16.02;;;5.50;99.10;;;;;;5092702;28;20176;-74
2021/03/02 04:04:40;;;;;;;22.27;16.00;;;5.50;98.80;;;;;;5059170;28;20491;-73
2021/03/02 04:07:06;;;;;;;22.55;17.05;;;5.40;98.60;;;;;;5093321;28;20738;-74
2021/03/02 04:09:34;;;;;;;21.63;15.68;;;5.40;98.10;;;;;;5093570;28;20214;-73
2021/03/02 04:12:00;;;;;;;25.90;17.63;;;5.40;98.00;;;;;;5093487;28;20716;-73
2021/03/02 04:14:31;;;;;;;21.87;17.63;;;5.40;97.90;;;;;;5092978;28;20176;-73
2021/03/02 04:16:57;;;;;;;19.50;16.50;;;5.50;98.10;;;;;;5094086;28;20386;-73
2021/03/02 04:19:23;;;;;;;21.05;16.90;;;5.50;98.40;;;;;;5092049;28;20176;-73
2021/03/02 04:21:49;;;;;;;26.90;20.40;;;5.50;98.50;;;;;;5093713;28;20171;-73
2021/03/02 04:24:14;;;;;;;23.40;18.80;;;5.50;98.60;;;;;;5092167;28;20489;-74
2021/03/02 04:26:40;;;;;;;25.10;19.97;;;5.60;98.70;;;;;;5093611;28;20217;-73
2021/03/02 04:29:06;;;;;;;24.47;17.83;;;5.50;98.70;;;;;;5093374;28;20173;-73
2021/03/02 04:31:31;;;;;;;20.80;16.40;;;5.60;98.60;;;;;;5092617;28;20196;-73
2021/03/02 04:33:57;;;;;;;24.30;16.50;;;5.60;98.20;;;;;;5093063;28;20217;-74
2021/03/02 04:36:23;;;;;;;19.10;15.50;;;5.50;97.90;;;;;;5092333;28;20184;-73
2021/03/02 04:38:48;;;;;;;18.03;15.60;;;5.50;98.00;;;;;;5091842;28;20533;-73
2021/03/02 04:41:14;;;;;;;17.67;14.70;;;5.50;98.20;;;;;;5092723;28;20259;-73
2021/03/02 04:43:40;;;;;;;17.67;15.87;;;5.40;98.30;;;;;;5093434;28;20601;-73
2021/03/02 04:46:05;;;;;;;15.50;13.90;;;5.50;98.40;;;;;;5093208;28;20214;-73
2021/03/02 04:48:31;;;;;;;16.00;13.93;;;5.50;98.30;;;;;;5092407;28;20180;-73
2021/03/02 04:50:57;;;;;;;19.60;15.23;;;5.50;98.20;;;;;;5093057;28;20283;-73
2021/03/02 04:53:23;;;;;;;17.33;14.50;;;5.50;97.80;;;;;;5092307;28;20213;-73
2021/03/02 04:55:48;;;;;;;17.80;15.07;;;5.40;97.50;;;;;;5092590;28;20173;-73
2021/03/02 04:58:14;;;;;;;16.60;14.70;;;5.50;97.20;;;;;;5086045;28;20647;-73
2021/03/02 05:00:40;;;;;;;16.40;14.63;;;5.40;97.40;;;;;;5072640;28;20274;-73
2021/03/02 05:03:06;;;;;;;18.40;14.30;;;5.30;96.90;;;;;;5072627;28;20556;-73
2021/03/02 05:05:32;;;;;;;20.50;14.63;;;5.30;96.80;;;;;;5071700;28;20181;-73
2021/03/02 05:07:57;;;;;;;16.97;14.83;;;5.30;96.70;;;;;;5072523;28;20422;-73
2021/03/02 05:10:23;;;;;;;19.70;14.60;;;5.20;96.60;;;;;;5071462;28;20178;-74
2021/03/02 05:12:49;;;;;;;16.83;14.67;;;5.20;96.60;;;;;;5072470;28;20211;-74
2021/03/02 05:15:15;;;;;;;19.27;15.00;;;5.20;96.60;;;;;;5071504;28;20173;-74
2021/03/02 05:17:40;;;;;;;16.92;14.73;;;5.20;96.70;;;;;;5072357;28;20176;-74
2021/03/02 05:20:07;;;;;;;18.20;14.93;;;5.20;96.80;;;;;;5091092;28;20172;-74
2021/03/02 05:22:32;;;;;;;18.83;14.45;;;5.10;96.60;;;;;;5091515;28;20280;-74
2021/03/02 05:24:58;;;;;;;20.30;15.37;;;5.10;96.80;;;;;;5057444;28;20620;-73
2021/03/02 05:27:24;;;;;;;17.03;14.50;;;5.10;97.00;;;;;;5091789;28;20168;-73
2021/03/02 05:29:50;;;;;;;17.00;14.67;;;5.10;97.10;;;;;;5092460;28;20176;-73
2021/03/02 05:32:15;;;;;;;16.80;14.10;;;5.10;97.00;;;;;;5091241;28;20203;-74
2021/03/02 05:34:41;;;;;;;18.10;15.40;;;5.10;96.90;;;;;;5056849;28;20537;-74
2021/03/02 05:37:07;;;;;;;21.50;15.20;;;5.00;96.90;;;;;;5092530;28;20612;-74
2021/03/02 05:39:33;;;;;;;19.20;14.77;;;5.00;96.90;;;;;;5091562;28;20258;-74
2021/03/02 05:42:00;;;;;;;21.38;14.77;;;5.00;96.80;;;;;;5092135;28;20176;-74
2021/03/02 05:44:26;;;;;;;16.90;14.82;;;5.00;96.70;;;;;;5091017;28;20172;-74
2021/03/02 05:46:52;;;;;;;16.55;14.98;;;5.00;96.70;;;;;;5090258;28;20643;-73
2021/03/02 05:49:18;;;;;;;19.27;14.82;;;5.00;97.50;;;;;;5091232;28;20168;-74
2021/03/02 05:51:43;;;;;;;20.50;14.80;;;5.00;97.60;;;;;;5091654;28;20204;-73
2021/03/02 05:54:10;;;;;;;22.40;15.90;;;5.00;97.70;;;;;;5092185;28;20599;-74
2021/03/02 05:56:38;;;;;;;16.25;14.35;;;5.00;97.70;;;;;;5091218;28;20185;-74
2021/03/02 05:59:04;;;;;;;20.23;14.60;;;5.00;97.60;;;;;;5091940;28;20176;-74
2021/03/02 06:01:30;;;;;;;19.77;15.05;;;5.00;97.30;;;;;;5090140;28;20226;-74
2021/03/02 06:03:55;;;;;;;17.60;15.17;;;5.00;96.90;;;;;;5091946;28;20183;-74
2021/03/02 06:06:21;;;;;;;20.50;16.60;;;5.00;96.70;;;;;;5090598;28;20184;-74
2021/03/02 06:08:47;;;;;;;24.63;17.90;;;5.00;96.60;;;;;;5091734;28;20202;-74
2021/03/02 06:11:25;;;;;;;19.50;15.43;;;5.00;96.70;;;;;;5091119;28;20283;-74
2021/03/02 06:13:51;;;;;;;14.75;13.10;;;4.90;96.70;;;;;;5071255;28;20661;-73
2021/03/02 06:16:17;;;;;;;17.75;13.88;;;4.90;96.80;;;;;;5070861;28;20550;-74
2021/03/02 06:18:52;;;;;;;15.47;13.83;;;5.00;97.00;;;;;;5071533;28;20173;-73
2021/03/02 06:21:19;;;;;;;17.02;13.27;;;4.90;97.10;;;;;;5070669;28;20550;-74
2021/03/02 06:23:53;;;;;;;17.90;13.13;;;4.90;97.30;;;;;;5085491;28;20192;-74
2021/03/02 06:26:24;;;;;;;14.95;13.35;;;5.00;97.50;;;;;;5090443;28;20187;-75
2021/03/02 06:28:55;;;;;;;15.73;13.25;;;5.00;97.70;;;;;;5074003;28;20593;-74
2021/03/02 06:31:35;;;;;;;15.05;13.43;;;5.00;98.10;;;;;;5090609;28;20369;-74
2021/03/02 06:34:14;;;;;;;15.32;13.70;;;5.00;97.90;;;;;;5091198;28;20662;-74
2021/03/02 06:36:53;;;;;;;18.92;15.23;;;5.00;98.00;;;;;;5091305;28;20194;-74
2021/03/02 06:39:23;;;;;;;17.90;14.82;;;5.00;98.10;;;;;;5090986;28;20164;-74
2021/03/02 06:41:50;;;;;;;15.35;13.40;;;5.00;98.20;;;;;;5091642;28;20180;-74
2021/03/02 06:44:16;;;;;;;16.58;14.52;;;5.10;98.30;;;;;;5073081;28;20172;-75
2021/03/02 06:46:42;;;;;;;15.70;12.93;;;5.10;98.00;;;;;;5091634;28;20224;-74
2021/03/02 06:49:09;;;;;;;18.65;16.20;;;5.00;98.00;;;;;;5051870;28;20415;-74
2021/03/02 06:51:39;;;;;;;23.50;16.92;;;5.00;98.10;;;;;;5070818;28;20240;-73
2021/03/02 06:54:25;;;;;;;19.88;15.98;;;5.00;98.30;;;;;;5091823;28;20183;-73
2021/03/02 06:57:01;;;;;;;21.45;14.75;;;5.10;98.50;;;;;;5071768;28;20173;-74
2021/03/02 06:59:29;;;;;;;17.60;14.55;;;5.10;98.70;;;;;;5074311;28;20169;-74
2021/03/02 07:01:55;;;;;;;17.60;15.23;;;5.10;98.70;;;;;;5084764;28;20241;-74
2021/03/02 07:04:21;;;;;;;32.55;19.65;;;4.80;99.00;;;;;;5093880;28;20168;-75
2021/03/02 07:06:54;;;;;;;24.42;17.90;;;4.90;99.60;;;;;;5095040;28;20183;-74
2021/03/02 07:09:20;;;;;;;25.42;17.45;;;4.90;99.40;;;;;;5073763;28;20189;-74
2021/03/02 07:11:48;;;;;;;19.05;15.85;;;4.80;99.80;;;;;;5074670;28;20214;-75
2021/03/02 07:14:15;;;;;;;18.52;15.27;;;4.90;99.90;;;;;;5074499;28;20449;-75
2021/03/02 07:16:44;;;;;;;18.58;14.80;;;5.00;99.90;;;;;;5077289;28;20170;-73
2021/03/02 07:19:16;;;;;;;18.90;16.13;;;5.10;99.90;;;;;;5084383;28;20177;-74
2021/03/02 07:21:44;;;;;;;19.15;15.13;;;5.20;99.90;;;;;;5093873;28;20180;-74
2021/03/02 07:24:12;;;;;;;18.40;15.15;;;5.30;99.90;;;;;;5076740;28;20171;-73
2021/03/02 07:26:43;;;;;;;15.98;13.73;;;5.30;99.80;;;;;;5075199;28;20173;-73
2021/03/02 07:29:10;;;;;;;20.50;15.05;;;5.50;99.90;;;;;;5094190;28;20513;-73
2021/03/02 07:31:37;;;;;;;17.42;14.18;;;5.60;99.80;;;;;;5073328;28;20227;-73
2021/03/02 07:34:09;;;;;;;17.40;13.65;;;5.40;99.30;;;;;;5091057;28;20239;-73
2021/03/02 07:36:37;;;;;;;20.02;14.68;;;5.40;99.90;;;;;;5075670;28;20248;-74
2021/03/02 07:39:17;;;;;;;17.85;15.70;;;5.60;99.90;;;;;;5073649;28;20203;-74
2021/03/02 07:41:47;;;;;;;17.73;14.80;;;5.70;99.70;;;;;;5089237;28;20180;-73
2021/03/02 07:44:13;;;;;;;21.05;16.75;;;5.90;99.50;;;;;;5094449;28;20164;-75
2021/03/02 07:46:42;;;;;;;17.20;15.40;;;6.10;99.90;;;;;;5075536;28;20290;-76
2021/03/02 07:49:22;;;;;;;17.85;15.40;;;6.80;99.90;;;;;;5094287;28;20165;-75
2021/03/02 07:52:14;;;;;;;17.47;15.77;;;7.80;99.90;;;;;;5093822;28;20205;-76
2021/03/02 07:54:41;;;;;;;15.57;13.80;;;8.70;99.90;;;;;;5090317;28;20737;-76
2021/03/02 07:57:18;;;;;;;17.33;12.90;;;9.30;97.50;;;;;;5093365;28;20465;-75
2021/03/02 07:59:45;;;;;;;14.30;12.90;;;9.90;96.20;;;;;;5076253;28;20397;-75
2021/03/02 08:02:14;;;;;;;15.10;13.60;;;10.10;93.20;;;;;;5094089;28;21134;-74
2021/03/02 08:04:40;;;;;;;15.83;14.33;;;9.90;91.90;;;;;;5078596;28;20422;-74
2021/03/02 08:07:22;;;;;;;16.27;12.90;;;9.70;91.70;;;;;;5074099;28;20428;-74
2021/03/02 08:09:50;;;;;;;16.40;14.27;;;9.40;91.80;;;;;;5056113;28;20403;-74
2021/03/02 08:12:35;;;;;;;15.47;13.77;;;9.10;92.20;;;;;;5073902;28;20828;-74
2021/03/02 08:15:12;;;;;;;15.90;14.30;;;8.90;92.60;;;;;;5074018;28;20561;-74
2021/03/02 08:17:38;;;;;;;16.10;14.60;;;8.70;93.00;;;;;;5073321;28;21228;-74
2021/03/02 08:20:06;;;;;;;18.87;14.97;;;8.60;93.60;;;;;;5073574;28;20414;-75
2021/03/02 08:22:33;;;;;;;18.10;16.27;;;8.50;94.20;;;;;;5073173;28;20520;-75
2021/03/02 08:25:03;;;;;;;18.73;16.80;;;8.40;95.60;;;;;;5080444;28;20475;-75
2021/03/02 08:27:34;;;;;;;19.23;14.80;;;8.20;96.20;;;;;;5091313;28;20417;-74
2021/03/02 08:30:00;;;;;;;17.00;15.20;;;8.20;96.70;;;;;;5093533;28;20797;-74
2021/03/02 08:32:29;;;;;;;17.00;15.20;;;8.10;97.10;;;;;;5074584;28;20572;-74
2021/03/02 08:34:55;;;;;;;17.83;15.97;;;8.10;97.50;;;;;;5093896;28;20210;-74
2021/03/02 08:37:41;;;;;;;18.03;14.90;;;8.10;97.60;;;;;;5092926;28;20768;-74
2021/03/02 08:40:13;;;;;;;17.03;15.20;;;8.10;97.80;;;;;;5093466;28;20739;-74
2021/03/02 08:43:02;;;;;;;16.87;15.17;;;8.20;98.10;;;;;;5092389;28;20758;-74
2021/03/02 08:45:31;;;;;;;20.63;15.87;;;8.20;98.60;;;;;;5093048;28;20387;-74
2021/03/02 08:48:16;;;;;;;18.77;15.73;;;8.30;98.90;;;;;;5093594;28;20727;-79
2021/03/02 08:50:43;;;;;;;17.20;15.27;;;8.40;98.70;;;;;;5092842;28;20394;-72
2021/03/02 08:53:28;;;;;;;18.10;16.30;;;8.50;98.40;;;;;;5093446;28;20412;-73
2021/03/02 08:55:54;;;;;;;19.43;16.70;;;8.60;98.80;;;;;;5092214;28;20916;-72
2021/03/02 08:58:31;;;;;;;21.13;17.37;;;8.70;98.60;;;;;;5091829;28;20471;-72
2021/03/02 09:01:09;;;;;;;20.87;16.53;;;8.80;98.40;;;;;;5092639;28;20460;-73
2021/03/02 09:03:36;;;;;;;20.33;16.60;;;8.90;98.90;;;;;;5091974;28;20402;-73
2021/03/02 09:06:09;;;;;;;333.30;189.33;;;9.00;99.10;;;;;;5070486;28;20717;-73
2021/03/02 09:08:51;;;;;;;1837.43;946.77;;;9.10;99.50;;;;;;5082169;28;20458;-73
2021/03/02 09:11:24;;;;;;;64.30;45.97;;;9.30;99.20;;;;;;5091750;28;20507;-73
2021/03/02 09:13:50;;;;;;;24.00;19.63;;;9.50;98.00;;;;;;5092245;28;20422;-73
2021/03/02 09:16:22;;;;;;;20.77;18.07;;;9.60;97.90;;;;;;5092684;28;20850;-73
2021/03/02 09:19:08;;;;;;;23.43;17.57;;;9.80;98.50;;;;;;5091626;28;20422;-73
2021/03/02 09:21:38;;;;;;;23.20;15.07;;;9.90;97.30;;;;;;5073152;28;20387;-72
2021/03/02 09:24:04;;;;;;;20.77;17.27;;;10.00;95.70;;;;;;5092992;28;20426;-73
2021/03/02 09:26:30;;;;;;;23.63;17.40;;;10.20;96.60;;;;;;5091883;28;20800;-72
2021/03/02 09:29:02;;;;;;;18.43;16.40;;;10.40;97.00;;;;;;5092913;28;20411;-72
2021/03/02 09:31:29;;;;;;;18.80;16.57;;;10.60;97.10;;;;;;5091920;28;20455;-74
2021/03/02 09:33:55;;;;;;;18.83;16.83;;;10.80;97.50;;;;;;5060386;28;20448;-74
2021/03/02 09:36:25;;;;;;;18.37;16.10;;;11.00;97.50;;;;;;5081270;28;20556;-75
2021/03/02 09:38:51;;;;;;;19.57;15.70;;;11.30;96.90;;;;;;5055952;28;20489;-74
2021/03/02 09:41:33;;;;;;;17.80;14.77;;;11.60;94.90;;;;;;5072547;28;20411;-74
2021/03/02 09:44:28;;;;;;;16.03;14.40;;;11.90;94.90;;;;;;5072476;28;20800;-74
2021/03/02 09:47:14;;;;;;;17.67;13.57;;;12.30;94.40;;;;;;5072708;28;20429;-74
2021/03/02 09:49:46;;;;;;;15.27;13.77;;;12.60;93.40;;;;;;5071639;28;20403;-74
2021/03/02 09:52:21;;;;;;;15.27;13.60;;;13.00;92.50;;;;;;5073876;28;20461;-74
2021/03/02 09:55:18;;;;;;;14.57;13.20;;;13.40;91.00;;;;;;5084714;28;20417;-74
2021/03/02 09:58:12;;;;;;;18.20;13.63;;;13.80;90.60;;;;;;5074219;28;20769;-74
2021/03/02 10:00:47;;;;;;;13.97;12.50;;;14.20;87.70;;;;;;5088976;28;20420;-75
2021/03/02 10:03:21;;;;;;;14.40;12.17;;;14.70;86.30;;;;;;5087074;28;20423;-75
2021/03/02 10:05:52;;;;;;;16.50;12.13;;;15.00;83.70;;;;;;5091982;28;20396;-75
2021/03/02 10:08:36;;;;;;;10.60;9.60;;;15.40;84.20;;;;;;5092460;28;20406;-75
2021/03/02 10:11:12;;;;;;;10.20;8.73;;;15.80;80.00;;;;;;5092452;28;20414;-74
2021/03/02 10:13:49;;;;;;;9.27;8.37;;;16.10;77.00;;;;;;5081361;28;20504;-74
2021/03/02 10:16:16;;;;;;;8.87;8.03;;;16.40;71.70;;;;;;5088752;28;20460;-74
2021/03/02 10:18:58;;;;;;;9.30;8.50;;;16.60;69.00;;;;;;5071615;28;20426;-74
2021/03/02 10:21:42;;;;;;;8.90;8.20;;;16.80;68.70;;;;;;5082688;28;20857;-73
2021/03/02 10:24:08;;;;;;;10.10;9.17;;;16.90;67.10;;;;;;5092091;28;20752;-73
2021/03/02 10:26:36;;;;;;;9.17;8.00;;;17.20;67.10;;;;;;5091379;28;20757;-73
2021/03/02 10:29:06;;;;;;;8.07;7.47;;;17.30;64.00;;;;;;5092239;28;20422;-74
2021/03/02 10:31:32;;;;;;;9.90;9.00;;;17.50;64.40;;;;;;5093401;28;20835;-74
2021/03/02 10:34:00;;;;;;;8.70;8.00;;;17.60;61.30;;;;;;5096006;28;20456;-74
2021/03/02 10:36:28;;;;;;;7.77;6.97;;;17.50;60.50;;;;;;5086062;28;20567;-74
2021/03/02 10:38:58;;;;;;;8.17;7.47;;;17.60;60.60;;;;;;5082722;28;20426;-75
2021/03/02 10:41:25;;;;;;;7.50;6.90;;;17.80;60.20;;;;;;5083255;28;20458;-75
2021/03/02 10:43:52;;;;;;;7.73;6.87;;;17.70;58.80;;;;;;5075712;28;20874;-74
2021/03/02 10:46:20;;;;;;;7.20;6.70;;;17.80;59.50;;;;;;5075106;28;20729;-74
2021/03/02 10:48:46;;;;;;;7.10;6.40;;;18.00;57.50;;;;;;5074702;28;21113;-74
2021/03/02 10:51:13;;;;;;;6.40;5.90;;;17.90;57.10;;;;;;5074981;28;20442;-75
2021/03/02 10:53:40;;;;;;;6.63;6.13;;;17.80;57.20;;;;;;5083934;28;20422;-74
2021/03/02 10:56:06;;;;;;;6.17;5.67;;;18.20;57.80;;;;;;5084085;28;20799;-74
2021/03/02 10:58:32;;;;;;;7.30;6.70;;;18.50;56.80;;;;;;5094231;28;20414;-75
2021/03/02 11:00:58;;;;;;;6.70;6.00;;;18.50;55.80;;;;;;5094876;28;20406;-75
2021/03/02 11:03:24;;;;;;;7.63;6.23;;;18.50;55.10;;;;;;5095120;28;20733;-75
2021/03/02 11:05:51;;;;;;;6.30;5.80;;;18.50;56.60;;;;;;5076283;28;20180;-75
2021/03/02 11:08:18;;;;;;;7.00;6.60;;;18.70;55.50;;;;;;5095655;28;20407;-75
2021/03/02 11:10:43;;;;;;;6.00;5.40;;;18.60;54.40;;;;;;5094247;28;20405;-75
2021/03/02 11:13:10;;;;;;;5.60;5.20;;;18.80;55.10;;;;;;5094963;28;20442;-75
2021/03/02 11:15:35;;;;;;;6.27;5.67;;;18.90;55.10;;;;;;5079813;28;20260;-75
2021/03/02 11:18:21;;;;;;;6.93;6.20;;;19.20;56.50;;;;;;5079540;28;20490;-74
2021/03/02 11:20:47;;;;;;;5.90;5.50;;;19.20;53.50;;;;;;5086935;28;20172;-74
2021/03/02 11:23:14;;;;;;;6.50;6.00;;;19.30;53.80;;;;;;5086012;28;20450;-75
2021/03/02 11:25:41;;;;;;;5.97;5.47;;;19.30;52.80;;;;;;5084314;28;20424;-74
2021/03/02 11:28:08;;;;;;;5.70;5.30;;;19.40;52.20;;;;;;5056224;28;20419;-74
2021/03/02 11:30:34;;;;;;;5.53;5.03;;;19.40;51.50;;;;;;5076653;28;20472;-76
2021/03/02 11:33:00;;;;;;;6.23;5.73;;;19.30;51.80;;;;;;5077102;28;21011;-76
2021/03/02 11:35:26;;;;;;;6.83;6.20;;;19.20;51.60;;;;;;5055816;28;20453;-76
2021/03/02 11:37:52;;;;;;;6.70;5.83;;;19.30;54.30;;;;;;5073466;28;20177;-76
2021/03/02 11:40:19;;;;;;;5.07;4.70;;;19.50;56.40;;;;;;5079355;28;20487;-76
2021/03/02 11:42:45;;;;;;;5.27;4.87;;;19.90;56.90;;;;;;5054765;28;20430;-76
2021/03/02 11:45:12;;;;;;;5.70;5.20;;;20.20;52.40;;;;;;5082932;28;20902;-74
2021/03/02 11:47:38;;;;;;;7.43;6.73;;;20.20;51.50;;;;;;5079954;28;20180;-76
2021/03/02 11:50:08;;;;;;;8.20;7.60;;;20.20;54.30;;;;;;5073827;28;20441;-76
2021/03/02 11:52:35;;;;;;;6.00;5.60;;;20.40;53.90;;;;;;5079441;28;20458;-76
2021/03/02 11:55:01;;;;;;;29.33;23.03;;;20.70;52.40;;;;;;5094466;28;20885;-76
2021/03/02 11:57:27;;;;;;;35.50;30.67;;;21.00;52.70;;;;;;5075964;28;20551;-76
2021/03/02 11:59:52;;;;;;;22.70;20.30;;;21.10;50.40;;;;;;5092990;28;20450;-76
2021/03/02 12:02:18;;;;;;;10.30;9.40;;;21.00;50.70;;;;;;5093663;28;20172;-77
2021/03/02 12:04:44;;;;;;;176.80;143.53;;;21.10;49.70;;;;;;5093385;28;20165;-76
2021/03/02 12:07:10;;;;;;;13.30;12.10;;;20.90;49.00;;;;;;5075718;28;20172;-76
2021/03/02 12:09:37;;;;;;;5.23;4.73;;;20.70;50.70;;;;;;5073037;28;20410;-76
2021/03/02 12:12:04;;;;;;;15.97;14.27;;;20.70;49.40;;;;;;5075481;28;20443;-76
2021/03/02 12:14:30;;;;;;;7.17;6.67;;;20.70;50.40;;;;;;5083612;28;20427;-76
2021/03/02 12:16:57;;;;;;;6.40;5.90;;;20.90;51.70;;;;;;5083660;28;20393;-76
2021/03/02 12:19:23;;;;;;;7.20;6.60;;;21.20;51.10;;;;;;5081104;28;20472;-77
2021/03/02 12:21:49;;;;;;;7.10;6.60;;;21.40;49.80;;;;;;5084299;28;20411;-76
2021/03/02 12:24:15;;;;;;;5.17;4.87;;;21.50;50.60;;;;;;5083802;28;20252;-76
2021/03/02 12:26:40;;;;;;;4.87;4.43;;;21.50;45.40;;;;;;5091392;28;20176;-76
2021/03/02 12:29:07;;;;;;;4.50;4.17;;;20.60;43.90;;;;;;5093399;28;20405;-75
2021/03/02 12:31:34;;;;;;;4.97;4.67;;;20.00;46.50;;;;;;5092703;28;20212;-74
2021/03/02 12:34:00;;;;;;;5.87;5.47;;;19.90;47.50;;;;;;5093080;28;20993;-75
2021/03/02 12:36:26;;;;;;;5.07;4.73;;;20.00;46.90;;;;;;5093255;28;20394;-74
2021/03/02 12:38:52;;;;;;;4.60;4.30;;;20.10;46.90;;;;;;5092430;28;21032;-74
2021/03/02 12:41:18;;;;;;;4.43;4.13;;;20.20;45.90;;;;;;5093272;28;20212;-74
2021/03/02 12:43:43;;;;;;;19.40;16.90;;;20.10;46.30;;;;;;5092046;28;20635;-74
2021/03/02 12:46:11;;;;;;;12.30;11.13;;;20.00;46.10;;;;;;5078274;28;20885;-75
2021/03/02 12:48:37;;;;;;;17.17;15.47;;;19.70;46.50;;;;;;5081671;28;20176;-75